Weather at Hassan I Airport

Public forecast

Using degrees Celsius for public forecast. Weather courtesy of forecast.io.

Current aviation weather report (METAR) for Hassan I Airport

Retrieved 2021/09/18 18:00 UTC (60 minutes ago):

GMML 181800Z 02018KT CAVOK 29/17 Q1015 NOSIG

Aviation forecast (TAF) for Hassan I Airport

Retrieved 2021/09/18 18:18 UTC (42 minutes ago):

TAF GMML 181700Z 1818/1924 36018KT CAVOK